Etusivu
METAR-TAF:

METAR-TAF

Lentoasemat :

Natchez-Adams County Airport (Hardy-Anders Field)

Natchez, Mississippi, Yhdysvallat

Leveyspiiri: 31-37N, Pituuspiiri: 091-18W, korkeus merenpinnasta: 83 m

Tämänhetkinen sää

Tämä raportti tehtiin 22 minuuttia sitten, kello 15.36 UTC
Tuuli 4 kn pohjoisesta
Lämpötila 14°C
Kosteus 94%
Ilmanpaine 1019 hPa
Näkyvyys: 16.1 km
Pilvistä 1100 ft:n korkeudessa

METAR: KHEZ 261536Z AUTO 01004KT 10SM OVC011 14/13 A3008 RMK AO2

Aika: 09:58 (15:58 UTC)


TAF: puuttuu

Säähavainnot ja -ennusteet yli 4000 lentoasemalta (METAR- ja TAF-raportit).

Käytössä olevat sääasemat on merkitty karttaan keltaisilla ja punaisilla pisteillä.

Aseta hiiri pisteen päälle nähdäksesi sääaseman nimen.

Klikkaa sitten nähdäksesi säähavainnot ja -ennusteet.

Kartan vaihtaminen: klikkaa mustalla rastilla varustettuja vihreitä pisteitä, niin voit zoomata sisään; viivalla varustettua vihreää pistettä, niin voit zoomata ulos tai vihreitä nuolia, niin pääset viereisille kartoille.


METAR-TAF: